createdAt,value
2019-02-12T00:00:31.373Z,101459.08
2019-02-12T00:05:37.166Z,101434.78
2019-02-12T00:10:47.598Z,101446.76
2019-02-12T00:15:55.558Z,101449.89
2019-02-12T00:21:09.117Z,101454.58
2019-02-12T00:26:12.281Z,101452.22
2019-02-12T00:31:18.509Z,101438.34
2019-02-12T00:36:24.464Z,101451.34
2019-02-12T00:41:30.204Z,101456.02
2019-02-12T00:46:37.197Z,101456.48
2019-02-12T00:51:43.282Z,101467.73
2019-02-12T00:56:49.221Z,101465.09
2019-02-12T01:01:56.925Z,101468.45
2019-02-12T01:07:03.569Z,101461.52
2019-02-12T01:12:11.076Z,101472.11
2019-02-12T01:17:17.230Z,101465.34
2019-02-12T01:22:23.110Z,101461.47
2019-02-12T01:27:28.914Z,101474.33
2019-02-12T01:32:35.700Z,101482.66
2019-02-12T01:37:41.389Z,101486.17
2019-02-12T01:42:47.378Z,101498.39
2019-02-12T01:47:53.885Z,101508.75
2019-02-12T01:53:01.271Z,101510.61
2019-02-12T01:58:08.400Z,101509.94
2019-02-12T02:03:15.367Z,101517.52
2019-02-12T02:08:22.656Z,101526.77
2019-02-12T02:13:28.722Z,101539.77
2019-02-12T02:18:35.129Z,101537.41
2019-02-12T02:23:41.817Z,101525.61
2019-02-12T02:28:48.561Z,101531.26
2019-02-12T02:33:54.921Z,101552.91
2019-02-12T02:39:00.873Z,101562.52
2019-02-12T02:44:08.505Z,101546.91
2019-02-12T02:49:14.501Z,101540.91
2019-02-12T02:54:20.528Z,101570.34
2019-02-12T02:59:30.442Z,101571.78
2019-02-12T03:04:36.570Z,101563.62
2019-02-12T03:09:44.558Z,101586.97
2019-02-12T03:14:50.638Z,101584.47
2019-02-12T03:19:56.806Z,101584.91
2019-02-12T03:25:08.721Z,101594.63
2019-02-12T03:30:15.896Z,101600.26
2019-02-12T03:35:22.458Z,101623.45
2019-02-12T03:40:28.034Z,101615.25
2019-02-12T03:45:38.511Z,101617.84
2019-02-12T03:50:44.413Z,101619.48
2019-02-12T03:55:50.305Z,101628.39
2019-02-12T04:00:56.923Z,101629.98
2019-02-12T04:06:03.006Z,101635.41
2019-02-12T04:11:09.034Z,101642.22
2019-02-12T04:16:15.097Z,101639.84
2019-02-12T04:21:23.113Z,101642.62
2019-02-12T04:26:28.762Z,101637.87
2019-02-12T04:31:36.451Z,101637.92
2019-02-12T04:36:45.463Z,101620.64
2019-02-12T04:41:53.502Z,101633.33
2019-02-12T04:47:00.320Z,101645.02
2019-02-12T04:52:05.924Z,101657.94
2019-02-12T04:57:12.614Z,101654.87
2019-02-12T05:02:21.705Z,101656.48
2019-02-12T05:07:27.472Z,101659.89
2019-02-12T05:12:33.638Z,101654.19
2019-02-12T05:17:39.620Z,101655.91
2019-02-12T05:22:45.757Z,101669.50
2019-02-12T05:27:54.641Z,101681.71
2019-02-12T05:33:03.772Z,101668.98
2019-02-12T05:38:10.288Z,101646.23
2019-02-12T05:43:16.689Z,101652.84
2019-02-12T05:48:22.313Z,101679.86
2019-02-12T05:53:28.035Z,101662.05
2019-02-12T05:58:34.787Z,101673.09
2019-02-12T06:03:41.111Z,101670.97
2019-02-12T06:08:48.293Z,101696.52
2019-02-12T06:13:56.892Z,101726.77
2019-02-12T06:19:07.642Z,101742.65
2019-02-12T06:24:13.903Z,101747.05
2019-02-12T06:29:20.985Z,101759.02
2019-02-12T06:34:26.653Z,101762.45
2019-02-12T06:39:32.457Z,101783.00
2019-02-12T06:44:39.870Z,101794.52
2019-02-12T06:49:47.239Z,101805.44
2019-02-12T06:54:55.023Z,101813.19
2019-02-12T07:00:02.271Z,101804.82
2019-02-12T07:05:10.139Z,101813.99
2019-02-12T07:10:16.862Z,101817.59
2019-02-12T07:15:25.880Z,101823.09
2019-02-12T07:20:44.669Z,101841.86
2019-02-12T07:26:00.173Z,101865.00
2019-02-12T07:31:28.168Z,101866.05
2019-02-12T07:36:56.946Z,101872.27
2019-02-12T07:42:20.344Z,101873.66
2019-02-12T07:47:46.391Z,101890.65
2019-02-12T07:52:57.590Z,101891.84
2019-02-12T07:58:42.993Z,101901.95
2019-02-12T08:04:08.253Z,101918.37
2019-02-12T08:09:37.875Z,101918.17
2019-02-12T08:14:49.835Z,101929.81
2019-02-12T08:20:02.353Z,101928.89
2019-02-12T08:25:26.069Z,101931.20
2019-02-12T08:30:46.684Z,101950.86
2019-02-12T08:35:59.259Z,101940.12
2019-02-12T08:41:24.666Z,101962.97
2019-02-12T08:46:53.241Z,101947.12
2019-02-12T08:52:23.412Z,101961.61
2019-02-12T08:57:48.763Z,101971.86
2019-02-12T09:03:22.508Z,101972.20
2019-02-12T09:08:45.615Z,101996.09
2019-02-12T09:14:04.001Z,101992.81
2019-02-12T09:19:25.154Z,102014.59
2019-02-12T09:24:51.351Z,102002.50
2019-02-12T09:30:12.686Z,102015.83
2019-02-12T09:35:43.893Z,102009.91
2019-02-12T09:40:58.743Z,102045.25
2019-02-12T09:46:22.838Z,102027.20
2019-02-12T09:51:43.694Z,102045.23
2019-02-12T09:56:59.003Z,102059.41
2019-02-12T10:02:25.071Z,102053.77
2019-02-12T10:07:40.797Z,102075.00
2019-02-12T10:13:21.461Z,102080.63
2019-02-12T10:18:35.439Z,102077.75
2019-02-12T10:24:08.482Z,102085.20
2019-02-12T10:29:21.979Z,102093.97
2019-02-12T10:34:29.458Z,102103.17
2019-02-12T10:39:36.656Z,102098.45
2019-02-12T10:44:43.653Z,102107.28
2019-02-12T10:49:50.461Z,102105.31
2019-02-12T10:54:57.097Z,102101.59
2019-02-12T11:00:11.019Z,102100.36
2019-02-12T11:05:18.923Z,102092.17
2019-02-12T11:10:28.656Z,102110.77
2019-02-12T11:15:40.473Z,102092.28
2019-02-12T11:20:48.354Z,102110.88
2019-02-12T11:25:54.485Z,102109.75
2019-02-12T11:31:00.758Z,102112.85
2019-02-12T11:36:06.493Z,102103.17
2019-02-12T11:41:12.822Z,102102.52
2019-02-12T11:46:19.610Z,102115.52
2019-02-12T11:51:28.424Z,102118.02
2019-02-12T11:56:36.277Z,102124.69
2019-02-12T12:01:44.260Z,102116.85
2019-02-12T12:06:52.128Z,102142.73
2019-02-12T12:12:03.084Z,102128.64
2019-02-12T12:17:10.795Z,102130.92
2019-02-12T12:22:18.282Z,102136.45
2019-02-12T12:27:29.111Z,102139.69
2019-02-12T12:32:35.033Z,102149.28
2019-02-12T12:37:41.404Z,102145.06
2019-02-12T12:42:47.399Z,102145.37
2019-02-12T12:47:54.661Z,102167.22
2019-02-12T12:53:02.604Z,102167.66
2019-02-12T12:58:11.350Z,102163.00
2019-02-12T13:03:20.991Z,102176.80
2019-02-12T13:08:27.273Z,102174.16
2019-02-12T13:13:33.851Z,102174.47
2019-02-12T13:18:43.171Z,102190.05
2019-02-12T13:23:48.983Z,102188.91
2019-02-12T13:28:56.494Z,102188.69
2019-02-12T13:34:03.479Z,102193.34
2019-02-12T13:39:09.434Z,102199.81
2019-02-12T13:44:19.604Z,102198.37
2019-02-12T13:49:28.169Z,102195.75
2019-02-12T13:54:37.929Z,102211.95
2019-02-12T13:59:44.044Z,102220.32
2019-02-12T14:04:51.509Z,102217.69
2019-02-12T14:09:59.127Z,102229.15
2019-02-12T14:15:14.707Z,102217.19
2019-02-12T14:20:20.648Z,102220.78
2019-02-12T14:25:30.830Z,102235.70
2019-02-12T14:30:39.362Z,102243.03
2019-02-12T14:35:45.838Z,102237.65
2019-02-12T14:40:53.234Z,102247.19
2019-02-12T14:45:58.998Z,102252.55
2019-02-12T14:51:05.184Z,102253.05
2019-02-12T14:56:12.334Z,102269.91
2019-02-12T15:01:18.323Z,102267.34
2019-02-12T15:06:24.732Z,102270.59
2019-02-12T15:11:35.905Z,102277.68
2019-02-12T15:16:42.252Z,102287.02
2019-02-12T15:21:51.828Z,102287.84
2019-02-12T15:27:02.502Z,102301.08
2019-02-12T15:32:09.239Z,102296.80
2019-02-12T15:37:16.998Z,102290.13
2019-02-12T15:42:25.873Z,102287.09
2019-02-12T15:47:31.694Z,102294.48
2019-02-12T15:52:37.924Z,102302.23
2019-02-12T15:57:45.909Z,102302.05
2019-02-12T16:02:54.528Z,102298.77
2019-02-12T16:08:00.319Z,102306.50
2019-02-12T16:13:06.993Z,102292.69
2019-02-12T16:18:15.841Z,102297.81
2019-02-12T16:23:23.764Z,102302.13
2019-02-12T16:28:30.098Z,102313.06
2019-02-12T16:33:42.285Z,102315.91
2019-02-12T16:38:49.127Z,102320.12
2019-02-12T16:43:55.510Z,102324.41
2019-02-12T16:49:01.951Z,102339.97
2019-02-12T16:54:09.608Z,102344.69
2019-02-12T16:59:15.430Z,102346.42
2019-02-12T17:04:21.610Z,102357.78
2019-02-12T17:09:28.378Z,102366.41
2019-02-12T17:14:34.562Z,102382.09
2019-02-12T17:19:43.954Z,102382.82
2019-02-12T17:24:52.530Z,102395.03
2019-02-12T17:29:59.407Z,102393.70
2019-02-12T17:35:06.988Z,102393.73
2019-02-12T17:40:15.395Z,102394.70
2019-02-12T17:45:21.631Z,102396.20
2019-02-12T17:50:27.832Z,102399.34
2019-02-12T17:55:33.961Z,102405.29
2019-02-12T18:00:41.623Z,102404.64
2019-02-12T18:05:48.963Z,102410.83
2019-02-12T18:10:57.453Z,102407.91
2019-02-12T18:16:04.018Z,102414.41
2019-02-12T18:21:11.178Z,102421.74
2019-02-12T18:26:18.613Z,102416.69
2019-02-12T18:31:24.289Z,102416.41
2019-02-12T18:36:32.934Z,102411.31
2019-02-12T18:41:40.028Z,102427.80
2019-02-12T18:46:47.848Z,102422.75
2019-02-12T18:51:53.770Z,102420.08
2019-02-12T18:56:59.414Z,102429.23
2019-02-12T19:02:05.595Z,102435.08
2019-02-12T19:07:13.353Z,102434.95
2019-02-12T19:12:19.700Z,102435.55
2019-02-12T19:17:25.449Z,102435.66
2019-02-12T19:22:31.511Z,102437.70
2019-02-12T19:27:38.039Z,102445.59
2019-02-12T19:32:44.038Z,102441.77
2019-02-12T19:37:49.861Z,102450.09
2019-02-12T19:42:59.096Z,102455.56
2019-02-12T19:48:05.354Z,102446.05
2019-02-12T19:53:14.136Z,102447.50
2019-02-12T19:58:22.119Z,102437.80
2019-02-12T20:03:28.635Z,102439.75
2019-02-12T20:08:35.560Z,102441.45
2019-02-12T20:13:41.219Z,102447.98
2019-02-12T20:18:47.235Z,102459.17
2019-02-12T20:23:53.572Z,102456.44
2019-02-12T20:29:01.320Z,102454.93
2019-02-12T20:34:07.072Z,102458.87
2019-02-12T20:39:13.244Z,102455.52
2019-02-12T20:44:22.271Z,102450.25
2019-02-12T20:49:29.463Z,102459.81
2019-02-12T20:54:37.358Z,102461.78
2019-02-12T20:59:43.257Z,102460.84
2019-02-12T21:04:49.121Z,102459.17
2019-02-12T21:09:55.295Z,102464.69
2019-02-12T21:15:01.123Z,102456.57
2019-02-12T21:20:10.664Z,102453.82
2019-02-12T21:25:18.647Z,102450.68
2019-02-12T21:30:32.316Z,102448.01
2019-02-12T21:35:41.320Z,102445.81
2019-02-12T21:40:47.730Z,102445.88
2019-02-12T21:45:54.480Z,102451.39
2019-02-12T21:51:00.800Z,102455.05
2019-02-12T21:56:06.867Z,102459.70
2019-02-12T22:01:12.670Z,102457.60
2019-02-12T22:06:19.627Z,102459.53
2019-02-12T22:11:26.848Z,102456.40
2019-02-12T22:16:32.895Z,102468.00
2019-02-12T22:21:38.972Z,102467.39
2019-02-12T22:26:45.327Z,102477.89
2019-02-12T22:31:52.843Z,102478.81
2019-02-12T22:36:59.095Z,102470.22
2019-02-12T22:42:05.533Z,102472.95
2019-02-12T22:47:11.198Z,102474.89
2019-02-12T22:52:16.912Z,102467.07
2019-02-12T22:57:22.899Z,102485.95
2019-02-12T23:02:28.771Z,102495.25
2019-02-12T23:07:34.870Z,102472.27
2019-02-12T23:12:41.287Z,102464.70
2019-02-12T23:17:48.817Z,102461.98
2019-02-12T23:22:54.442Z,102464.30
2019-02-12T23:28:00.619Z,102460.95
2019-02-12T23:33:06.591Z,102456.09
2019-02-12T23:38:12.891Z,102463.31
2019-02-12T23:43:18.526Z,102463.26
2019-02-12T23:48:24.185Z,102456.14
2019-02-12T23:53:30.647Z,102463.95
2019-02-12T23:58:36.247Z,102464.42
